Time,TemperatureF,DewpointF,PressureIn,WindDirection,WindDirectionDegrees,WindSpeedMPH,WindSpeedGustMPH,Humidity,HourlyPrecipIn,Conditions,Clouds,dailyrainin,SoftwareType,DateUTC
2013-08-16 00:01:00,60.6,52.6,30.06,ENE,65,0.0,0.0,75,0.00,CLR,,0.00,WeatherDisplay:10.37,2013-08-16 04:01:00,
2013-08-16 00:06:00,60.1,52.5,30.07,East,87,0.0,0.0,76,0.00,CLR,,0.00,WeatherDisplay:10.37,2013-08-16 04:06:00,
2013-08-16 00:11:00,60.1,52.5,30.06,North,357,0.0,0.0,76,0.00,CLR,,0.00,WeatherDisplay:10.37,2013-08-16 04:11:00,
2013-08-16 00:16:00,59.9,52.3,30.06,ESE,109,0.0,0.0,76,0.00,CLR,,0.00,WeatherDisplay:10.37,2013-08-16 04:16:00,
2013-08-16 00:21:00,59.9,52.3,30.06,ESE,109,0.0,0.0,76,0.00,CLR,,0.00,WeatherDisplay:10.37,2013-08-16 04:21:00,
2013-08-16 00:26:00,59.7,52.5,30.06,ESE,109,1.6,1.6,77,0.00,CLR,,0.00,WeatherDisplay:10.37,2013-08-16 04:26:00,
2013-08-16 00:31:00,59.7,52.5,30.06,NE,42,0.0,0.0,77,0.00,CLR,,0.00,WeatherDisplay:10.37,2013-08-16 04:31:00,
2013-08-16 00:36:00,59.7,52.5,30.06,ENE,65,0.0,0.0,77,0.00,CLR,,0.00,WeatherDisplay:10.37,2013-08-16 04:36:00,
2013-08-16 00:41:00,59.7,52.5,30.07,NNE,19,0.0,0.0,77,0.00,CLR,,0.00,WeatherDisplay:10.37,2013-08-16 04:41:00,
2013-08-16 00:46:00,59.7,52.5,30.07,NE,42,0.0,0.0,77,0.00,CLR,,0.00,WeatherDisplay:10.37,2013-08-16 04:46:00,
2013-08-16 00:51:00,59.7,52.5,30.07,ENE,65,0.0,0.0,77,0.00,CLR,,0.00,WeatherDisplay:10.37,2013-08-16 04:51:00,
2013-08-16 00:56:00,59.7,52.8,30.07,NE,42,0.0,0.0,78,0.00,CLR,,0.00,WeatherDisplay:10.37,2013-08-16 04:56:00,
2013-08-16 01:01:00,59.9,53.0,30.07,East,87,0.2,1.1,78,0.00,CLR,,0.00,WeatherDisplay:10.37,2013-08-16 05:01:00,
2013-08-16 01:06:00,59.9,53.0,30.07,ESE,109,0.0,0.0,78,0.00,CLR,,0.00,WeatherDisplay:10.37,2013-08-16 05:06:00,
2013-08-16 01:11:00,59.7,52.8,30.07,NNW,335,0.0,0.0,78,0.00,SCT,,0.00,WeatherDisplay:10.37,2013-08-16 05:11:00,
2013-08-16 01:19:00,59.5,52.7,30.07,NE,42,0.0,0.0,78,0.00,SCT,,0.00,WeatherDisplay:10.37,2013-08-16 05:19:00,
2013-08-16 01:24:00,59.5,52.7,30.06,NNE,19,0.0,0.0,78,0.00,SCT,,0.00,WeatherDisplay:10.37,2013-08-16 05:24:00,
2013-08-16 01:29:00,59.2,52.3,30.06,ENE,65,0.0,0.0,78,0.00,SCT,,0.00,WeatherDisplay:10.37,2013-08-16 05:29:00,
2013-08-16 01:34:00,58.8,52.0,30.06,ESE,109,0.0,0.0,78,0.00,SCT,,0.00,WeatherDisplay:10.37,2013-08-16 05:34:00,
2013-08-16 01:39:00,58.8,52.0,30.06,NNE,19,0.0,0.0,78,0.00,SCT,,0.00,WeatherDisplay:10.37,2013-08-16 05:39:00,
2013-08-16 01:44:00,58.8,52.3,30.06,NNE,19,0.0,0.0,79,0.00,SCT,,0.00,WeatherDisplay:10.37,2013-08-16 05:44:00,
2013-08-16 01:49:00,58.6,51.8,30.06,NNE,19,0.0,0.0,78,0.00,SCT,,0.00,WeatherDisplay:10.37,2013-08-16 05:49:00,
2013-08-16 01:54:00,58.6,51.8,30.06,NE,42,0.0,0.0,78,0.00,SCT,,0.00,WeatherDisplay:10.37,2013-08-16 05:54:00,
2013-08-16 01:59:00,58.3,51.4,30.06,NNE,19,0.0,0.0,78,0.00,SCT,,0.00,WeatherDisplay:10.37,2013-08-16 05:59:00,
2013-08-16 02:04:00,58.1,51.6,30.06,North,357,0.0,0.0,79,0.00,SCT,,0.00,WeatherDisplay:10.37,2013-08-16 06:04:00,
2013-08-16 02:09:00,58.1,51.6,30.06,NNE,19,0.0,0.0,79,0.00,SCT,,0.00,WeatherDisplay:10.37,2013-08-16 06:09:00,
2013-08-16 02:14:00,58.1,51.6,30.07,North,357,0.0,0.0,79,0.00,SCT,,0.00,WeatherDisplay:10.37,2013-08-16 06:14:00,
2013-08-16 02:19:00,58.1,52.0,30.06,North,357,0.0,0.0,80,0.00,SCT,,0.00,WeatherDisplay:10.37,2013-08-16 06:19:00,
2013-08-16 02:24:00,58.1,52.0,30.06,North,357,0.0,0.0,80,0.00,SCT,,0.00,WeatherDisplay:10.37,2013-08-16 06:24:00,
2013-08-16 02:29:00,57.9,51.8,30.06,North,357,0.0,0.0,80,0.00,SCT,,0.00,WeatherDisplay:10.37,2013-08-16 06:29:00,
2013-08-16 02:34:00,57.9,51.8,30.06,WNW,289,0.0,0.0,80,0.00,SCT,,0.00,WeatherDisplay:10.37,2013-08-16 06:34:00,
2013-08-16 02:39:00,57.7,51.6,30.06,NNE,19,0.0,0.0,80,0.00,SCT,,0.00,WeatherDisplay:10.37,2013-08-16 06:39:00,
2013-08-16 02:44:00,57.6,51.8,30.06,NNW,335,0.0,0.0,81,0.00,SCT,,0.00,WeatherDisplay:10.37,2013-08-16 06:44:00,
2013-08-16 02:49:00,57.6,51.8,30.06,NNW,335,1.3,1.3,81,0.00,SCT,,0.00,WeatherDisplay:10.37,2013-08-16 06:49:00,
2013-08-16 02:54:00,57.7,51.9,30.06,North,357,0.0,0.0,81,0.00,SCT,,0.00,WeatherDisplay:10.37,2013-08-16 06:54:00,
2013-08-16 02:59:00,57.7,52.3,30.06,North,357,0.0,0.0,82,0.00,SCT,,0.00,WeatherDisplay:10.37,2013-08-16 06:59:00,
2013-08-16 03:04:00,57.7,51.9,30.06,NNW,335,0.0,0.0,81,0.00,SCT,,0.00,WeatherDisplay:10.37,2013-08-16 07:04:00,
2013-08-16 03:09:00,57.7,52.3,30.06,NNE,19,0.0,0.0,82,0.00,CLR,,0.00,WeatherDisplay:10.37,2013-08-16 07:09:00,
2013-08-16 03:14:00,58.1,52.6,30.06,NNE,19,0.8,1.3,82,0.00,CLR,,0.00,WeatherDisplay:10.37,2013-08-16 07:14:00,
2013-08-16 03:19:00,58.3,52.8,30.06,NNE,19,1.6,1.6,82,0.00,CLR,,0.00,WeatherDisplay:10.37,2013-08-16 07:19:00,
2013-08-16 03:24:00,58.6,53.2,30.06,NNE,19,0.0,0.0,82,0.00,CLR,,0.00,WeatherDisplay:10.37,2013-08-16 07:24:00,
2013-08-16 03:29:00,58.8,53.0,30.06,North,357,0.4,1.6,81,0.00,CLR,,0.00,WeatherDisplay:10.37,2013-08-16 07:29:00,
2013-08-16 03:34:00,58.6,52.8,30.06,NNE,19,0.0,0.0,81,0.00,CLR,,0.00,WeatherDisplay:10.37,2013-08-16 07:34:00,
2013-08-16 03:39:00,58.6,52.8,30.07,NNE,19,0.0,0.0,81,0.00,CLR,,0.00,WeatherDisplay:10.37,2013-08-16 07:39:00,
2013-08-16 03:44:00,58.6,52.8,30.07,NNE,19,0.0,0.0,81,0.00,CLR,,0.00,WeatherDisplay:10.37,2013-08-16 07:44:00,
2013-08-16 03:49:00,58.6,52.8,30.06,NE,42,1.0,1.1,81,0.00,CLR,,0.00,WeatherDisplay:10.37,2013-08-16 07:49:00,
2013-08-16 03:54:00,58.5,52.6,30.06,North,357,1.3,1.3,81,0.00,CLR,,0.00,WeatherDisplay:10.37,2013-08-16 07:54:00,
2013-08-16 03:59:00,58.3,52.5,30.06,NNW,335,2.2,2.3,81,0.00,CLR,,0.00,WeatherDisplay:10.37,2013-08-16 07:59:00,
2013-08-16 04:04:00,58.3,52.8,30.06,NNE,19,1.7,2.3,82,0.00,CLR,,0.00,WeatherDisplay:10.37,2013-08-16 08:04:00,
2013-08-16 04:09:00,58.3,52.8,30.06,NE,42,0.0,0.0,82,0.00,FEW,,0.00,WeatherDisplay:10.37,2013-08-16 08:09:00,
2013-08-16 04:14:00,58.1,52.6,30.06,NNE,19,0.9,1.1,82,0.00,FEW,,0.00,WeatherDisplay:10.37,2013-08-16 08:14:00,
2013-08-16 04:19:00,58.1,52.6,30.06,NNE,19,0.0,2.3,82,0.00,FEW,,0.00,WeatherDisplay:10.37,2013-08-16 08:19:00,
2013-08-16 04:24:00,58.1,52.6,30.06,NNE,19,0.0,0.0,82,0.00,FEW,,0.00,WeatherDisplay:10.37,2013-08-16 08:24:00,
2013-08-16 04:29:00,57.9,52.1,30.06,NE,42,0.0,0.0,81,0.00,FEW,,0.00,WeatherDisplay:10.37,2013-08-16 08:29:00,
2013-08-16 04:34:00,57.7,51.9,30.06,North,357,0.0,0.0,81,0.00,FEW,,0.00,WeatherDisplay:10.37,2013-08-16 08:34:00,
2013-08-16 04:39:00,57.7,52.3,30.06,North,357,0.0,0.0,82,0.00,FEW,,0.00,WeatherDisplay:10.37,2013-08-16 08:39:00,
2013-08-16 04:44:00,57.6,52.1,30.05,NNE,19,0.0,0.0,82,0.00,FEW,,0.00,WeatherDisplay:10.37,2013-08-16 08:44:00,
2013-08-16 04:49:00,57.6,52.4,30.06,North,357,0.0,0.0,83,0.00,FEW,,0.00,WeatherDisplay:10.37,2013-08-16 08:49:00,
2013-08-16 04:54:00,57.4,51.9,30.06,North,357,0.0,0.0,82,0.00,FEW,,0.00,WeatherDisplay:10.37,2013-08-16 08:54:00,
2013-08-16 04:59:00,57.4,51.9,30.06,NNE,19,0.0,0.0,82,0.00,FEW,,0.00,WeatherDisplay:10.37,2013-08-16 08:59:00,
2013-08-16 05:04:00,57.4,51.9,30.05,NE,42,0.0,0.0,82,0.00,FEW,,0.00,WeatherDisplay:10.37,2013-08-16 09:04:00,
2013-08-16 05:09:00,57.2,52.1,30.05,NE,42,0.0,0.0,83,0.00,FEW,,0.00,WeatherDisplay:10.37,2013-08-16 09:09:00,
2013-08-16 05:14:00,57.0,51.9,30.06,NNE,19,0.0,0.0,83,0.00,FEW,,0.00,WeatherDisplay:10.37,2013-08-16 09:14:00,
2013-08-16 05:19:00,57.0,51.9,30.05,NNE,19,0.0,0.0,83,0.00,FEW,,0.00,WeatherDisplay:10.37,2013-08-16 09:19:00,
2013-08-16 05:24:00,57.0,51.9,30.05,East,87,0.0,0.0,83,0.00,FEW,,0.00,WeatherDisplay:10.37,2013-08-16 09:24:00,
2013-08-16 05:29:00,57.0,52.2,30.06,NNW,335,0.0,0.0,84,0.00,FEW,,0.00,WeatherDisplay:10.37,2013-08-16 09:29:00,
2013-08-16 05:34:00,56.8,51.7,30.06,NNE,19,0.0,0.0,83,0.00,FEW,,0.00,WeatherDisplay:10.37,2013-08-16 09:34:00,
2013-08-16 05:39:00,56.8,52.1,30.05,North,357,0.0,0.0,84,0.00,FEW,,0.00,WeatherDisplay:10.37,2013-08-16 09:39:00,
2013-08-16 05:44:00,56.8,52.1,30.05,North,357,0.0,0.0,84,0.00,FEW,,0.00,WeatherDisplay:10.37,2013-08-16 09:44:00,
2013-08-16 05:49:00,57.0,52.2,30.05,NE,42,0.0,0.0,84,0.00,FEW,,0.00,WeatherDisplay:10.37,2013-08-16 09:49:00,
2013-08-16 05:54:00,57.0,52.2,30.06,North,357,0.0,0.0,84,0.00,FEW,,0.00,WeatherDisplay:10.37,2013-08-16 09:54:00,
2013-08-16 05:59:00,57.0,52.2,30.05,North,357,1.3,2.2,84,0.00,FEW,,0.00,WeatherDisplay:10.37,2013-08-16 09:59:00,
2013-08-16 06:04:00,57.0,52.2,30.06,North,357,0.0,0.0,84,0.00,FEW,,0.00,WeatherDisplay:10.37,2013-08-16 10:04:00,
2013-08-16 06:09:00,57.0,52.2,30.06,NE,42,0.0,0.0,84,0.00,SCT,,0.00,WeatherDisplay:10.37,2013-08-16 10:09:00,
2013-08-16 06:14:00,57.0,52.2,30.06,NNW,335,0.7,1.1,84,0.00,SCT,,0.00,WeatherDisplay:10.37,2013-08-16 10:14:00,
2013-08-16 06:19:00,57.0,52.2,30.06,NE,42,0.2,1.1,84,0.00,SCT,,0.00,WeatherDisplay:10.37,2013-08-16 10:19:00,
2013-08-16 06:24:00,57.0,52.2,30.06,ENE,65,0.0,0.0,84,0.00,SCT,,0.00,WeatherDisplay:10.37,2013-08-16 10:24:00,
2013-08-16 06:29:00,57.0,52.2,30.06,NNE,19,0.0,0.0,84,0.00,SCT,,0.00,WeatherDisplay:10.37,2013-08-16 10:29:00,
2013-08-16 06:34:00,57.0,52.2,30.06,NE,42,0.0,0.0,84,0.00,SCT,,0.00,WeatherDisplay:10.37,2013-08-16 10:34:00,
2013-08-16 06:39:00,56.8,52.1,30.06,ESE,109,0.0,0.0,84,0.00,SCT,,0.00,WeatherDisplay:10.37,2013-08-16 10:39:00,
2013-08-16 06:44:00,56.8,52.1,30.06,ENE,65,0.0,0.0,84,0.00,SCT,,0.00,WeatherDisplay:10.37,2013-08-16 10:44:00,
2013-08-16 06:49:00,56.5,51.7,30.06,NE,42,0.0,0.0,84,0.00,SCT,,0.00,WeatherDisplay:10.37,2013-08-16 10:49:00,
2013-08-16 06:54:00,56.5,51.7,30.06,ENE,65,0.0,0.0,84,0.00,SCT,,0.00,WeatherDisplay:10.37,2013-08-16 10:54:00,
2013-08-16 06:59:00,56.5,51.7,30.07,NNE,19,0.0,0.0,84,0.00,SCT,,0.00,WeatherDisplay:10.37,2013-08-16 10:59:00,
2013-08-16 07:04:00,56.5,51.7,30.07,NNE,19,0.0,0.0,84,0.00,SCT,,0.00,WeatherDisplay:10.37,2013-08-16 11:04:00,
2013-08-16 07:09:00,56.7,51.9,30.07,ENE,65,0.0,0.0,84,0.00,SCT,,0.00,WeatherDisplay:10.37,2013-08-16 11:09:00,
2013-08-16 07:14:00,56.8,52.4,30.07,NNE,19,1.3,2.0,85,0.00,SCT,,0.00,WeatherDisplay:10.37,2013-08-16 11:14:00,
2013-08-16 07:19:00,57.0,52.6,30.07,NNE,19,0.0,0.0,85,0.00,SCT,,0.00,WeatherDisplay:10.37,2013-08-16 11:19:00,
2013-08-16 07:24:00,57.4,52.9,30.07,East,87,0.0,0.0,85,0.00,SCT,,0.00,WeatherDisplay:10.37,2013-08-16 11:24:00,
2013-08-16 07:29:00,57.6,53.1,30.08,NNW,335,1.3,2.0,85,0.00,SCT,,0.00,WeatherDisplay:10.37,2013-08-16 11:29:00,
2013-08-16 07:34:00,57.7,53.3,30.07,East,87,0.0,0.0,85,0.00,SCT,,0.00,WeatherDisplay:10.37,2013-08-16 11:34:00,
2013-08-16 07:39:00,57.9,53.4,30.07,NE,42,0.0,0.0,85,0.00,SCT,,0.00,WeatherDisplay:10.37,2013-08-16 11:39:00,
2013-08-16 07:44:00,58.1,53.3,30.08,ESE,109,0.0,0.0,84,0.00,SCT,,0.00,WeatherDisplay:10.37,2013-08-16 11:44:00,
2013-08-16 07:49:00,58.3,53.5,30.08,East,87,0.0,0.0,84,0.00,SCT,,0.00,WeatherDisplay:10.37,2013-08-16 11:49:00,
2013-08-16 07:54:00,58.5,53.6,30.08,East,87,0.0,0.0,84,0.00,SCT,,0.00,WeatherDisplay:10.37,2013-08-16 11:54:00,
2013-08-16 07:59:00,58.8,54.0,30.08,East,87,0.6,1.1,84,0.00,SCT,,0.00,WeatherDisplay:10.37,2013-08-16 11:59:00,
2013-08-16 08:04:00,58.8,53.7,30.08,East,87,0.0,0.0,83,0.00,SCT,,0.00,WeatherDisplay:10.37,2013-08-16 12:04:00,
2013-08-16 08:09:00,59.0,53.8,30.08,East,87,0.0,0.0,83,0.00,BKN,,0.00,WeatherDisplay:10.37,2013-08-16 12:09:00,
2013-08-16 08:14:00,59.5,54.4,30.08,ESE,109,0.0,0.0,83,0.00,BKN,,0.00,WeatherDisplay:10.37,2013-08-16 12:14:00,
2013-08-16 08:19:00,59.7,54.5,30.08,NNW,335,0.0,0.0,83,0.00,BKN,,0.00,WeatherDisplay:10.37,2013-08-16 12:19:00,
2013-08-16 08:24:00,59.7,54.5,30.09,ENE,65,0.0,0.0,83,0.00,BKN,,0.00,WeatherDisplay:10.37,2013-08-16 12:24:00,
2013-08-16 08:29:00,60.1,54.6,30.09,NW,312,0.0,0.0,82,0.00,BKN,,0.00,WeatherDisplay:10.37,2013-08-16 12:29:00,
2013-08-16 08:34:00,60.4,54.9,30.09,ENE,65,0.0,0.0,82,0.00,BKN,,0.00,WeatherDisplay:10.37,2013-08-16 12:34:00,
2013-08-16 08:39:00,60.6,55.1,30.09,North,357,0.0,0.0,82,0.00,BKN,,0.00,WeatherDisplay:10.37,2013-08-16 12:39:00,
2013-08-16 08:44:00,61.0,55.1,30.09,North,357,1.5,3.1,81,0.00,BKN,,0.00,WeatherDisplay:10.37,2013-08-16 12:44:00,
2013-08-16 08:49:00,61.2,55.3,30.09,NNE,19,0.0,0.0,81,0.00,BKN,,0.00,WeatherDisplay:10.37,2013-08-16 12:49:00,
2013-08-16 08:54:00,61.3,55.5,30.10,SE,132,0.0,0.0,81,0.00,BKN,,0.00,WeatherDisplay:10.37,2013-08-16 12:54:00,
2013-08-16 08:59:00,61.7,55.5,30.09,North,357,0.0,0.0,80,0.00,BKN,,0.00,WeatherDisplay:10.37,2013-08-16 12:59:00,
2013-08-16 09:04:00,62.1,55.8,30.09,NW,312,0.0,0.0,80,0.00,BKN,,0.00,WeatherDisplay:10.37,2013-08-16 13:04:00,
2013-08-16 09:09:00,62.8,56.5,30.09,NNW,335,0.0,0.7,80,0.00,BKN,,0.00,WeatherDisplay:10.37,2013-08-16 13:09:00,
2013-08-16 09:14:00,63.7,57.0,30.09,East,87,0.0,0.0,79,0.00,BKN,,0.00,WeatherDisplay:10.37,2013-08-16 13:14:00,
2013-08-16 09:19:00,64.2,57.2,30.09,WNW,289,0.0,3.5,78,0.00,BKN,,0.00,WeatherDisplay:10.37,2013-08-16 13:19:00,
2013-08-16 09:24:00,64.9,57.6,30.10,ENE,65,0.0,0.0,77,0.00,BKN,,0.00,WeatherDisplay:10.37,2013-08-16 13:24:00,
2013-08-16 09:29:00,66.0,58.2,30.10,North,357,0.6,1.6,76,0.00,BKN,,0.00,WeatherDisplay:10.37,2013-08-16 13:29:00,
2013-08-16 09:34:00,66.9,58.7,30.10,ENE,65,3.6,3.6,75,0.00,BKN,,0.00,WeatherDisplay:10.37,2013-08-16 13:34:00,
2013-08-16 09:39:00,67.3,57.9,30.10,East,87,0.0,0.0,72,0.00,BKN,,0.00,WeatherDisplay:10.37,2013-08-16 13:39:00,
2013-08-16 09:44:00,67.6,57.9,30.09,East,87,1.4,1.6,71,0.00,BKN,,0.00,WeatherDisplay:10.37,2013-08-16 13:44:00,
2013-08-16 09:49:00,67.3,57.6,30.09,ESE,109,2.0,2.5,71,0.00,BKN,,0.00,WeatherDisplay:10.37,2013-08-16 13:49:00,
2013-08-16 09:54:00,67.3,57.2,30.09,West,267,1.5,2.3,70,0.00,BKN,,0.00,WeatherDisplay:10.37,2013-08-16 13:54:00,
2013-08-16 09:59:00,67.3,57.2,30.09,SE,132,5.6,6.7,70,0.00,BKN,,0.00,WeatherDisplay:10.37,2013-08-16 13:59:00,
2013-08-16 10:04:00,67.6,57.9,30.10,ENE,65,5.1,5.1,71,0.00,BKN,,0.00,WeatherDisplay:10.37,2013-08-16 14:04:00,
2013-08-16 10:09:00,67.8,57.3,30.09,West,267,3.1,3.5,69,0.00,SCT,,0.00,WeatherDisplay:10.37,2013-08-16 14:09:00,
2013-08-16 10:14:00,68.2,57.6,30.09,NE,42,2.9,3.1,69,0.00,SCT,,0.00,WeatherDisplay:10.37,2013-08-16 14:14:00,
2013-08-16 10:19:00,68.7,58.1,30.09,NNW,335,0.0,0.0,69,0.00,SCT,,0.00,WeatherDisplay:10.37,2013-08-16 14:19:00,
2013-08-16 10:24:00,69.3,58.2,30.09,East,87,0.0,0.0,68,0.00,SCT,,0.00,WeatherDisplay:10.37,2013-08-16 14:24:00,
2013-08-16 10:29:00,69.4,58.4,30.09,East,87,4.5,4.6,68,0.00,SCT,,0.00,WeatherDisplay:10.37,2013-08-16 14:29:00,
2013-08-16 10:34:00,70.0,58.9,30.09,ESE,109,1.3,1.3,68,0.00,SCT,,0.00,WeatherDisplay:10.37,2013-08-16 14:34:00,
2013-08-16 10:39:00,70.2,59.1,30.09,ENE,65,0.7,1.1,68,0.00,SCT,,0.00,WeatherDisplay:10.37,2013-08-16 14:39:00,
2013-08-16 10:44:00,70.5,59.0,30.09,ESE,109,0.9,2.3,67,0.00,SCT,,0.00,WeatherDisplay:10.37,2013-08-16 14:44:00,
2013-08-16 10:49:00,70.9,59.8,30.09,East,87,0.0,0.0,68,0.00,SCT,,0.00,WeatherDisplay:10.37,2013-08-16 14:49:00,
2013-08-16 10:54:00,71.4,59.9,30.09,ESE,109,3.9,5.1,67,0.00,SCT,,0.00,WeatherDisplay:10.37,2013-08-16 14:54:00,
2013-08-16 10:59:00,71.8,59.8,30.09,NNE,19,0.4,2.3,66,0.00,SCT,,0.00,WeatherDisplay:10.37,2013-08-16 14:59:00,
2013-08-16 11:04:00,72.0,59.6,30.09,ESE,109,6.9,6.9,65,0.00,SCT,,0.00,WeatherDisplay:10.37,2013-08-16 15:04:00,
2013-08-16 11:09:00,71.8,59.4,30.09,East,87,0.3,1.8,65,0.00,CLR,,0.00,WeatherDisplay:10.37,2013-08-16 15:09:00,
2013-08-16 11:14:00,72.0,59.6,30.10,NE,42,2.3,2.3,65,0.00,CLR,,0.00,WeatherDisplay:10.37,2013-08-16 15:14:00,
2013-08-16 11:19:00,72.1,59.7,30.10,ENE,65,1.6,2.3,65,0.00,CLR,,0.00,WeatherDisplay:10.37,2013-08-16 15:19:00,
2013-08-16 11:24:00,72.5,60.5,30.10,ENE,65,0.1,2.5,66,0.00,CLR,,0.00,WeatherDisplay:10.37,2013-08-16 15:24:00,
2013-08-16 11:29:00,73.2,60.7,30.10,East,87,1.1,1.1,65,0.00,CLR,,0.00,WeatherDisplay:10.37,2013-08-16 15:29:00,
2013-08-16 11:34:00,74.1,60.7,30.10,NE,42,0.0,5.8,63,0.00,CLR,,0.00,WeatherDisplay:10.37,2013-08-16 15:34:00,
2013-08-16 11:39:00,74.5,61.1,30.09,North,357,0.0,0.0,63,0.00,CLR,,0.00,WeatherDisplay:10.37,2013-08-16 15:39:00,
2013-08-16 11:44:00,74.5,61.1,30.09,ENE,65,2.3,3.6,63,0.00,CLR,,0.00,WeatherDisplay:10.37,2013-08-16 15:44:00,
2013-08-16 11:49:00,74.8,61.4,30.10,East,87,3.6,3.6,63,0.00,CLR,,0.00,WeatherDisplay:10.37,2013-08-16 15:49:00,
2013-08-16 11:54:00,75.0,61.1,30.09,ESE,109,0.3,3.4,62,0.00,CLR,,0.00,WeatherDisplay:10.37,2013-08-16 15:54:00,
2013-08-16 11:59:00,76.1,62.6,30.09,ENE,65,4.1,4.7,63,0.00,CLR,,0.00,WeatherDisplay:10.37,2013-08-16 15:59:00,
2013-08-16 12:04:00,76.6,62.6,30.09,NNW,335,0.2,2.3,62,0.00,CLR,,0.00,WeatherDisplay:10.37,2013-08-16 16:04:00,
2013-08-16 12:09:00,76.8,61.9,30.09,NNW,335,2.2,2.3,60,0.00,CLR,,0.00,WeatherDisplay:10.37,2013-08-16 16:09:00,
2013-08-16 12:14:00,76.8,61.9,30.09,ENE,65,3.6,4.6,60,0.00,CLR,,0.00,WeatherDisplay:10.37,2013-08-16 16:14:00,
2013-08-16 12:19:00,76.8,61.9,30.09,NNE,19,3.1,3.5,60,0.00,CLR,,0.00,WeatherDisplay:10.37,2013-08-16 16:19:00,
2013-08-16 12:24:00,77.2,62.2,30.09,SE,132,1.7,2.3,60,0.00,CLR,,0.00,WeatherDisplay:10.37,2013-08-16 16:24:00,
2013-08-16 12:29:00,77.4,62.4,30.09,North,357,2.7,2.9,60,0.00,CLR,,0.00,WeatherDisplay:10.37,2013-08-16 16:29:00,
2013-08-16 12:34:00,77.5,63.0,30.09,East,87,3.1,3.5,61,0.00,CLR,,0.00,WeatherDisplay:10.37,2013-08-16 16:34:00,
2013-08-16 12:39:00,78.6,63.1,30.09,ENE,65,0.9,1.1,59,0.00,CLR,,0.00,WeatherDisplay:10.37,2013-08-16 16:39:00,
2013-08-16 12:44:00,78.6,63.1,30.09,WSW,245,1.1,1.1,59,0.00,CLR,,0.00,WeatherDisplay:10.37,2013-08-16 16:44:00,
2013-08-16 12:49:00,78.6,63.6,30.08,ESE,109,0.1,3.5,60,0.00,CLR,,0.00,WeatherDisplay:10.37,2013-08-16 16:49:00,
2013-08-16 12:54:00,79.3,62.8,30.09,North,357,0.0,0.0,57,0.00,CLR,,0.00,WeatherDisplay:10.37,2013-08-16 16:54:00,
2013-08-16 12:59:00,79.3,62.8,30.09,North,357,0.0,2.3,57,0.00,CLR,,0.00,WeatherDisplay:10.37,2013-08-16 16:59:00,
2013-08-16 13:04:00,79.3,62.8,30.09,North,357,2.5,3.5,57,0.00,CLR,,0.00,WeatherDisplay:10.37,2013-08-16 17:04:00,
2013-08-16 13:09:00,79.5,62.9,30.09,SE,132,2.4,2.4,57,0.00,CLR,,0.00,WeatherDisplay:10.37,2013-08-16 17:09:00,
2013-08-16 13:14:00,79.7,62.6,30.09,NW,312,3.8,5.8,56,0.00,CLR,,0.00,WeatherDisplay:10.37,2013-08-16 17:14:00,
2013-08-16 13:19:00,79.7,63.1,30.08,ENE,65,0.9,1.1,57,0.00,CLR,,0.00,WeatherDisplay:10.37,2013-08-16 17:19:00,
2013-08-16 13:24:00,79.7,63.1,30.08,ENE,65,0.9,1.1,57,0.00,CLR,,0.00,WeatherDisplay:10.37,2013-08-16 17:24:00,
2013-08-16 13:30:00,80.1,62.4,30.08,North,357,6.2,6.9,55,0.00,CLR,,0.00,WeatherDisplay:10.37,2013-08-16 17:30:00,
2013-08-16 13:35:00,80.2,64.1,30.08,NNE,19,0.0,0.0,58,0.00,CLR,,0.00,WeatherDisplay:10.37,2013-08-16 17:35:00,
2013-08-16 13:40:00,80.2,64.1,30.08,NNE,19,0.0,0.0,58,0.00,CLR,,0.00,WeatherDisplay:10.37,2013-08-16 17:40:00,
2013-08-16 13:45:00,81.1,65.0,30.08,NNW,335,2.4,6.9,58,0.00,CLR,,0.00,WeatherDisplay:10.37,2013-08-16 17:45:00,
2013-08-16 13:50:00,81.1,65.0,30.08,NNW,335,6.5,6.9,58,0.00,CLR,,0.00,WeatherDisplay:10.37,2013-08-16 17:50:00,
2013-08-16 13:55:00,81.1,65.0,30.08,NW,320,6.0,0.0,58,0.00,CLR,,0.00,WeatherDisplay:10.37,2013-08-16 17:55:00,
2013-08-16 14:00:00,81.1,65.0,30.08,NW,312,5.8,5.8,58,0.00,CLR,,0.00,WeatherDisplay:10.37,2013-08-16 18:00:00,
2013-08-16 14:05:00,81.7,63.4,30.08,ENE,65,1.5,1.5,54,0.00,CLR,,0.00,WeatherDisplay:10.37,2013-08-16 18:05:00,
2013-08-16 14:10:00,81.7,63.4,30.08,NNW,335,0.0,0.0,54,0.00,CLR,,0.00,WeatherDisplay:10.37,2013-08-16 18:10:00,
2013-08-16 14:15:00,81.7,63.4,30.08,NNE,20,0.0,0.0,54,0.00,CLR,,0.00,WeatherDisplay:10.37,2013-08-16 18:15:00,
2013-08-16 14:20:00,81.3,63.1,30.07,SE,132,1.2,3.5,54,0.00,CLR,,0.00,WeatherDisplay:10.37,2013-08-16 18:20:00,
2013-08-16 14:25:00,81.5,62.7,30.07,WNW,289,4.0,4.0,53,0.00,CLR,,0.00,WeatherDisplay:10.37,2013-08-16 18:25:00,
2013-08-16 14:30:00,81.7,62.9,30.08,NW,312,1.8,4.6,53,0.00,CLR,,0.00,WeatherDisplay:10.37,2013-08-16 18:30:00,
2013-08-16 14:35:00,81.7,63.4,30.08,North,2,5.0,0.0,54,0.00,CLR,,0.00,WeatherDisplay:10.37,2013-08-16 18:35:00,
2013-08-16 14:40:00,82.0,63.2,30.08,NNW,335,2.3,4.6,53,0.00,CLR,,0.00,WeatherDisplay:10.37,2013-08-16 18:40:00,
2013-08-16 14:45:00,81.5,62.7,30.08,SE,132,4.2,0.0,53,0.00,CLR,,0.00,WeatherDisplay:10.37,2013-08-16 18:45:00,
2013-08-16 14:50:00,81.5,62.7,30.08,SE,132,4.2,0.0,53,0.00,CLR,,0.00,WeatherDisplay:10.37,2013-08-16 18:50:00,
2013-08-16 14:55:00,80.4,61.7,30.08,ESE,110,0.0,0.0,53,0.00,CLR,,0.00,WeatherDisplay:10.37,2013-08-16 18:55:00,
2013-08-16 14:59:00,80.8,62.1,30.07,East,87,0.0,0.0,53,0.00,CLR,,0.00,WeatherDisplay:10.37,2013-08-16 18:59:00,
2013-08-16 15:05:00,80.8,63.1,30.07,East,90,0.0,0.0,55,0.00,CLR,,0.00,WeatherDisplay:10.37,2013-08-16 19:05:00,
2013-08-16 15:10:00,80.8,63.1,30.07,NW,312,0.1,0.0,55,0.00,CLR,,0.00,WeatherDisplay:10.37,2013-08-16 19:10:00,
2013-08-16 15:15:00,80.4,62.8,30.06,East,94,0.0,0.0,55,0.00,CLR,,0.00,WeatherDisplay:10.37,2013-08-16 19:15:00,
2013-08-16 15:20:00,80.4,62.8,30.06,ESE,109,2.3,3.5,55,0.00,CLR,,0.00,WeatherDisplay:10.37,2013-08-16 19:20:00,
2013-08-16 15:25:00,80.4,62.2,30.05,ESE,107,0.0,0.0,54,0.00,CLR,,0.00,WeatherDisplay:10.37,2013-08-16 19:25:00,
2013-08-16 15:30:00,80.4,61.2,30.06,North,357,2.9,3.5,52,0.00,CLR,,0.00,WeatherDisplay:10.37,2013-08-16 19:30:00,
2013-08-16 15:35:00,81.7,62.3,30.05,NW,312,2.7,3.5,52,0.00,CLR,,0.00,WeatherDisplay:10.37,2013-08-16 19:35:00,
2013-08-16 15:40:00,81.7,62.3,30.05,NNE,19,1.6,1.6,52,0.00,CLR,,0.00,WeatherDisplay:10.37,2013-08-16 19:40:00,
2013-08-16 15:45:00,82.2,63.4,30.05,East,87,2.2,2.3,53,0.00,CLR,,0.00,WeatherDisplay:10.37,2013-08-16 19:45:00,
2013-08-16 15:50:00,82.6,62.6,30.06,NE,42,0.6,1.1,51,0.00,CLR,,0.00,WeatherDisplay:10.37,2013-08-16 19:50:00,
2013-08-16 15:55:00,82.8,62.8,30.05,NE,50,1.0,0.0,51,0.00,CLR,,0.00,WeatherDisplay:10.37,2013-08-16 19:55:00,
2013-08-16 16:00:00,82.9,63.0,30.05,NE,42,0.9,1.1,51,0.00,CLR,,0.00,WeatherDisplay:10.37,2013-08-16 20:00:00,
2013-08-16 16:05:00,82.4,63.0,30.05,East,87,0.1,2.3,52,0.00,CLR,,0.00,WeatherDisplay:10.37,2013-08-16 20:05:00,
2013-08-16 16:10:00,82.2,63.4,30.05,NW,312,3.3,3.5,53,0.00,CLR,,0.00,WeatherDisplay:10.37,2013-08-16 20:10:00,
2013-08-16 16:15:00,82.2,63.4,30.04,ESE,109,0.8,0.0,53,0.00,CLR,,0.00,WeatherDisplay:10.37,2013-08-16 20:15:00,
2013-08-16 16:20:00,82.0,62.7,30.05,South,177,1.8,2.3,52,0.00,CLR,,0.00,WeatherDisplay:10.37,2013-08-16 20:20:00,
2013-08-16 16:25:00,81.5,62.7,30.04,East,100,2.0,0.0,53,0.00,CLR,,0.00,WeatherDisplay:10.37,2013-08-16 20:25:00,
2013-08-16 16:30:00,82.2,62.8,30.05,North,357,3.5,3.5,52,0.00,CLR,,0.00,WeatherDisplay:10.37,2013-08-16 20:30:00,
2013-08-16 16:35:00,82.6,62.6,30.05,NW,312,2.9,3.5,51,0.00,CLR,,0.00,WeatherDisplay:10.37,2013-08-16 20:35:00,
2013-08-16 16:40:00,82.6,62.6,30.05,ESE,109,0.0,0.0,51,0.00,CLR,,0.00,WeatherDisplay:10.37,2013-08-16 20:40:00,
2013-08-16 16:45:00,82.6,63.2,30.05,East,87,1.5,1.5,52,0.00,CLR,,0.00,WeatherDisplay:10.37,2013-08-16 20:45:00,
2013-08-16 16:50:00,82.8,62.8,30.04,North,357,0.0,0.0,51,0.00,CLR,,0.00,WeatherDisplay:10.37,2013-08-16 20:50:00,
2013-08-16 16:55:00,82.6,62.6,30.05,North,357,0.0,2.3,51,0.00,CLR,,0.00,WeatherDisplay:10.37,2013-08-16 20:55:00,
2013-08-16 17:00:00,82.8,63.9,30.05,NE,42,0.9,1.1,53,0.00,CLR,,0.00,WeatherDisplay:10.37,2013-08-16 21:00:00,
2013-08-16 17:05:00,82.6,63.7,30.05,East,87,1.1,1.1,53,0.00,CLR,,0.00,WeatherDisplay:10.37,2013-08-16 21:05:00,
2013-08-16 17:10:00,82.4,64.1,30.05,ESE,109,2.3,2.3,54,0.00,BKN,,0.00,WeatherDisplay:10.37,2013-08-16 21:10:00,
2013-08-16 17:15:00,82.4,63.0,30.05,NNE,19,0.0,0.0,52,0.00,BKN,,0.00,WeatherDisplay:10.37,2013-08-16 21:15:00,
2013-08-16 17:20:00,82.4,64.1,30.06,NW,312,2.8,3.5,54,0.00,BKN,,0.00,WeatherDisplay:10.37,2013-08-16 21:20:00,
2013-08-16 17:25:00,82.0,63.2,30.05,ENE,65,2.5,2.5,53,0.00,BKN,,0.00,WeatherDisplay:10.37,2013-08-16 21:25:00,
2013-08-16 17:30:00,82.0,63.2,30.05,ESE,109,0.0,0.0,53,0.00,BKN,,0.00,WeatherDisplay:10.37,2013-08-16 21:30:00,
2013-08-16 17:35:00,82.2,63.4,30.05,ESE,109,0.0,0.0,53,0.00,BKN,,0.00,WeatherDisplay:10.37,2013-08-16 21:35:00,
2013-08-16 17:40:00,82.2,63.4,30.05,ESE,109,0.0,0.0,53,0.00,BKN,,0.00,WeatherDisplay:10.37,2013-08-16 21:40:00,
2013-08-16 17:45:00,82.0,63.2,30.06,ESE,109,0.0,0.0,53,0.00,BKN,,0.00,WeatherDisplay:10.37,2013-08-16 21:45:00,
2013-08-16 17:50:00,81.7,62.9,30.06,ENE,65,3.8,3.8,53,0.00,BKN,,0.00,WeatherDisplay:10.37,2013-08-16 21:50:00,
2013-08-16 17:55:00,81.7,62.9,30.06,NW,312,0.4,1.1,53,0.00,BKN,,0.00,WeatherDisplay:10.37,2013-08-16 21:55:00,
2013-08-16 18:00:00,81.0,62.7,30.05,NNE,19,2.0,2.3,54,0.00,BKN,,0.00,WeatherDisplay:10.37,2013-08-16 22:00:00,
2013-08-16 18:05:00,80.8,62.6,30.05,NNW,335,1.8,2.3,54,0.00,BKN,,0.00,WeatherDisplay:10.37,2013-08-16 22:05:00,
2013-08-16 18:10:00,80.8,63.1,30.05,North,357,0.0,0.0,55,0.00,BKN,,0.00,WeatherDisplay:10.37,2013-08-16 22:10:00,
2013-08-16 18:15:00,79.9,62.3,30.05,NW,312,0.0,0.0,55,0.00,BKN,,0.00,WeatherDisplay:10.37,2013-08-16 22:15:00,
2013-08-16 18:20:00,79.0,61.4,30.06,NNE,19,0.0,0.0,55,0.00,BKN,,0.00,WeatherDisplay:10.37,2013-08-16 22:20:00,
2013-08-16 18:25:00,78.4,61.4,30.06,NE,42,0.0,0.0,56,0.00,BKN,,0.00,WeatherDisplay:10.37,2013-08-16 22:25:00,
2013-08-16 18:30:00,77.9,61.9,30.06,East,87,0.0,0.0,58,0.00,BKN,,0.00,WeatherDisplay:10.37,2013-08-16 22:30:00,
2013-08-16 18:35:00,77.7,61.8,30.06,NNE,19,0.0,0.0,58,0.00,BKN,,0.00,WeatherDisplay:10.37,2013-08-16 22:35:00,
2013-08-16 18:40:00,77.5,62.1,30.06,NNW,335,0.0,0.0,59,0.00,BKN,,0.00,WeatherDisplay:10.37,2013-08-16 22:40:00,
2013-08-16 18:45:00,77.5,62.1,30.06,ESE,109,0.0,1.1,59,0.00,BKN,,0.00,WeatherDisplay:10.37,2013-08-16 22:45:00,
2013-08-16 18:50:00,77.2,61.7,30.06,ENE,65,0.0,0.0,59,0.00,BKN,,0.00,WeatherDisplay:10.37,2013-08-16 22:50:00,
2013-08-16 18:55:00,77.2,62.2,30.06,NE,42,0.0,0.0,60,0.00,BKN,,0.00,WeatherDisplay:10.37,2013-08-16 22:55:00,
2013-08-16 19:00:00,77.2,62.2,30.05,NNE,19,0.0,0.0,60,0.00,BKN,,0.00,WeatherDisplay:10.37,2013-08-16 23:00:00,
2013-08-16 19:05:00,77.2,62.7,30.06,East,87,0.0,0.0,61,0.00,BKN,,0.00,WeatherDisplay:10.37,2013-08-16 23:05:00,
2013-08-16 19:10:00,76.8,61.9,30.06,North,357,0.0,0.0,60,0.00,BKN,,0.00,WeatherDisplay:10.37,2013-08-16 23:10:00,
2013-08-16 19:15:00,76.6,61.7,30.06,NNE,19,0.0,0.0,60,0.00,BKN,,0.00,WeatherDisplay:10.37,2013-08-16 23:15:00,
2013-08-16 19:20:00,76.3,61.8,30.06,NE,42,0.0,0.0,61,0.00,BKN,,0.00,WeatherDisplay:10.37,2013-08-16 23:20:00,
2013-08-16 19:25:00,75.9,61.5,30.06,ENE,65,0.0,0.0,61,0.00,BKN,,0.00,WeatherDisplay:10.37,2013-08-16 23:25:00,
2013-08-16 19:30:00,75.7,61.8,30.06,ENE,65,0.0,0.0,62,0.00,BKN,,0.00,WeatherDisplay:10.37,2013-08-16 23:30:00,
2013-08-16 19:35:00,75.6,61.6,30.06,East,87,0.0,0.0,62,0.00,BKN,,0.00,WeatherDisplay:10.37,2013-08-16 23:35:00,
2013-08-16 19:40:00,75.4,61.5,30.06,ENE,65,0.0,0.0,62,0.00,BKN,,0.00,WeatherDisplay:10.37,2013-08-16 23:40:00,
2013-08-16 19:45:00,75.4,61.9,30.06,East,87,0.0,0.0,63,0.00,BKN,,0.00,WeatherDisplay:10.37,2013-08-16 23:45:00,
2013-08-16 19:50:00,74.8,61.8,30.06,East,87,0.0,0.0,64,0.00,BKN,,0.00,WeatherDisplay:10.37,2013-08-16 23:50:00,
2013-08-16 19:55:00,74.5,61.5,30.06,ESE,109,1.8,2.3,64,0.00,BKN,,0.00,WeatherDisplay:10.37,2013-08-16 23:55:00,
2013-08-16 20:00:00,74.3,61.3,30.06,ENE,65,1.1,2.0,64,0.00,BKN,,0.00,WeatherDisplay:10.37,2013-08-17 00:00:00,
2013-08-16 20:05:00,74.1,61.2,30.07,ENE,65,0.0,0.0,64,0.00,BKN,,0.00,WeatherDisplay:10.37,2013-08-17 00:05:00,
2013-08-16 20:10:00,73.9,61.0,30.07,NE,42,0.0,0.0,64,0.00,BKN,,0.00,WeatherDisplay:10.37,2013-08-17 00:10:00,
2013-08-16 20:15:00,73.8,60.8,30.07,North,357,0.0,0.0,64,0.00,BKN,,0.00,WeatherDisplay:10.37,2013-08-17 00:15:00,
2013-08-16 20:20:00,73.6,60.6,30.07,ESE,109,0.0,0.0,64,0.00,BKN,,0.00,WeatherDisplay:10.37,2013-08-17 00:20:00,
2013-08-16 20:25:00,73.2,60.3,30.06,ENE,65,0.0,0.0,64,0.00,BKN,,0.00,WeatherDisplay:10.37,2013-08-17 00:25:00,
2013-08-16 20:30:00,73.0,60.1,30.06,ENE,65,1.1,3.5,64,0.00,BKN,,0.00,WeatherDisplay:10.37,2013-08-17 00:30:00,
2013-08-16 20:35:00,72.7,60.2,30.07,ENE,65,0.0,1.1,65,0.00,BKN,,0.00,WeatherDisplay:10.37,2013-08-17 00:35:00,
2013-08-16 20:40:00,72.5,60.1,30.07,NE,42,0.0,0.0,65,0.00,BKN,,0.00,WeatherDisplay:10.37,2013-08-17 00:40:00,
2013-08-16 20:45:00,72.3,59.9,30.07,NE,42,0.0,0.0,65,0.00,BKN,,0.00,WeatherDisplay:10.37,2013-08-17 00:45:00,
2013-08-16 20:50:00,72.1,60.2,30.07,NE,42,0.0,0.0,66,0.00,BKN,,0.00,WeatherDisplay:10.37,2013-08-17 00:50:00,
2013-08-16 20:55:00,72.0,60.0,30.07,ENE,65,0.0,0.0,66,0.00,BKN,,0.00,WeatherDisplay:10.37,2013-08-17 00:55:00,
2013-08-16 21:00:00,71.8,59.8,30.07,ENE,65,0.0,0.0,66,0.00,BKN,,0.00,WeatherDisplay:10.37,2013-08-17 01:00:00,
2013-08-16 21:05:00,71.6,59.6,30.08,North,357,0.0,0.0,66,0.00,BKN,,0.00,WeatherDisplay:10.37,2013-08-17 01:05:00,
2013-08-16 21:10:00,71.4,59.5,30.08,NNE,19,0.0,0.0,66,0.00,BKN,,0.00,WeatherDisplay:10.37,2013-08-17 01:10:00,
2013-08-16 21:15:00,71.4,59.9,30.08,NNE,19,0.0,0.0,67,0.00,BKN,,0.00,WeatherDisplay:10.37,2013-08-17 01:15:00,
2013-08-16 21:20:00,71.4,59.9,30.08,North,357,1.1,2.3,67,0.00,BKN,,0.00,WeatherDisplay:10.37,2013-08-17 01:20:00,
2013-08-16 21:25:00,71.4,59.9,30.08,NNE,19,0.0,0.0,67,0.00,BKN,,0.00,WeatherDisplay:10.37,2013-08-17 01:25:00,
2013-08-16 21:30:00,71.2,59.7,30.08,ENE,65,0.0,0.0,67,0.00,BKN,,0.00,WeatherDisplay:10.37,2013-08-17 01:30:00,
2013-08-16 21:35:00,71.1,59.5,30.09,East,87,0.0,0.0,67,0.00,BKN,,0.00,WeatherDisplay:10.37,2013-08-17 01:35:00,
2013-08-16 21:40:00,70.9,59.4,30.08,NW,312,0.0,0.0,67,0.00,BKN,,0.00,WeatherDisplay:10.37,2013-08-17 01:40:00,
2013-08-16 21:45:00,70.5,59.0,30.09,NE,42,0.0,0.0,67,0.00,BKN,,0.00,WeatherDisplay:10.37,2013-08-17 01:45:00,
2013-08-16 21:50:00,70.3,59.3,30.09,NE,42,0.0,0.0,68,0.00,BKN,,0.00,WeatherDisplay:10.37,2013-08-17 01:50:00,
2013-08-16 21:55:00,70.3,59.3,30.09,NW,312,0.0,0.0,68,0.00,BKN,,0.00,WeatherDisplay:10.37,2013-08-17 01:55:00,
2013-08-16 22:00:00,70.2,59.5,30.09,North,357,0.2,1.1,69,0.00,BKN,,0.00,WeatherDisplay:10.37,2013-08-17 02:00:00,
2013-08-16 22:05:00,70.2,59.5,30.09,North,357,0.0,0.0,69,0.00,BKN,,0.00,WeatherDisplay:10.37,2013-08-17 02:05:00,
2013-08-16 22:10:00,70.0,59.3,30.09,NE,42,0.0,0.0,69,0.00,BKN,,0.00,WeatherDisplay:10.37,2013-08-17 02:10:00,
2013-08-16 22:15:00,70.0,59.3,30.10,NE,42,0.0,0.0,69,0.00,BKN,,0.00,WeatherDisplay:10.37,2013-08-17 02:15:00,
2013-08-16 22:20:00,70.0,59.3,30.10,ENE,65,0.0,0.0,69,0.00,BKN,,0.00,WeatherDisplay:10.37,2013-08-17 02:20:00,
2013-08-16 22:25:00,70.0,59.3,30.11,NE,42,0.0,0.0,69,0.00,BKN,,0.00,WeatherDisplay:10.37,2013-08-17 02:25:00,
2013-08-16 22:30:00,70.0,59.3,30.10,North,357,0.0,0.0,69,0.00,BKN,,0.00,WeatherDisplay:10.37,2013-08-17 02:30:00,
2013-08-16 22:35:00,70.0,59.3,30.11,NNW,335,0.5,1.1,69,0.00,BKN,,0.00,WeatherDisplay:10.37,2013-08-17 02:35:00,
2013-08-16 22:40:00,70.0,59.3,30.10,NE,42,0.0,0.0,69,0.00,BKN,,0.00,WeatherDisplay:10.37,2013-08-17 02:40:00,
2013-08-16 22:45:00,70.0,59.3,30.11,NNE,19,0.0,0.0,69,0.00,BKN,,0.00,WeatherDisplay:10.37,2013-08-17 02:45:00,
2013-08-16 22:50:00,69.8,59.2,30.11,NNW,335,0.0,0.0,69,0.00,BKN,,0.00,WeatherDisplay:10.37,2013-08-17 02:50:00,
2013-08-16 22:55:00,69.6,59.0,30.10,NNE,19,0.0,0.0,69,0.00,BKN,,0.00,WeatherDisplay:10.37,2013-08-17 02:55:00,
2013-08-16 23:00:00,69.6,59.0,30.11,NE,42,0.0,0.0,69,0.00,BKN,,0.00,WeatherDisplay:10.37,2013-08-17 03:00:00,
2013-08-16 23:05:00,69.4,59.2,30.10,ENE,65,0.0,0.0,70,0.00,BKN,,0.00,WeatherDisplay:10.37,2013-08-17 03:05:00,
2013-08-16 23:10:00,69.1,58.9,30.11,NE,42,0.0,0.0,70,0.00,OVC,,0.00,WeatherDisplay:10.37,2013-08-17 03:10:00,
2013-08-16 23:15:00,68.9,58.7,30.11,NE,42,0.0,0.0,70,0.00,OVC,,0.00,WeatherDisplay:10.37,2013-08-17 03:15:00,
2013-08-16 23:20:00,68.9,58.7,30.10,ENE,65,0.0,0.0,70,0.00,OVC,,0.00,WeatherDisplay:10.37,2013-08-17 03:20:00,
2013-08-16 23:25:00,68.7,58.5,30.10,NE,42,0.0,0.0,70,0.00,OVC,,0.00,WeatherDisplay:10.37,2013-08-17 03:25:00,
2013-08-16 23:30:00,68.7,58.5,30.10,NE,42,0.0,0.0,70,0.00,OVC,,0.00,WeatherDisplay:10.37,2013-08-17 03:30:00,
2013-08-16 23:35:00,68.5,58.4,30.10,East,87,0.0,2.3,70,0.00,OVC,,0.00,WeatherDisplay:10.37,2013-08-17 03:35:00,
2013-08-16 23:40:00,68.5,58.4,30.09,NW,312,0.9,1.1,70,0.00,OVC,,0.00,WeatherDisplay:10.37,2013-08-17 03:40:00,
2013-08-16 23:45:00,68.4,58.2,30.09,ESE,109,0.0,0.0,70,0.00,OVC,,0.00,WeatherDisplay:10.37,2013-08-17 03:45:00,
2013-08-16 23:50:00,68.4,58.2,30.09,East,87,2.1,2.3,70,0.00,OVC,,0.00,WeatherDisplay:10.37,2013-08-17 03:50:00,
2013-08-16 23:55:00,68.2,58.0,30.09,ENE,65,0.0,0.0,70,0.00,OVC,,0.00,WeatherDisplay:10.37,2013-08-17 03:55:00,